sensor_id;sensor_type;location;lat;lon;timestamp;temperature;humidity
67050;DHT22;53955;52.442;13.284;2022-09-17T00:01:24;15.00;72.80
67050;DHT22;53955;52.442;13.284;2022-09-17T00:03:53;15.10;73.20
67050;DHT22;53955;52.442;13.284;2022-09-17T00:06:21;15.10;73.60
67050;DHT22;53955;52.442;13.284;2022-09-17T00:08:49;15.10;72.70
67050;DHT22;53955;52.442;13.284;2022-09-17T00:11:17;15.10;73.30
67050;DHT22;53955;52.442;13.284;2022-09-17T00:13:46;15.00;73.70
67050;DHT22;53955;52.442;13.284;2022-09-17T00:16:19;15.10;73.00
67050;DHT22;53955;52.442;13.284;2022-09-17T00:18:46;15.00;73.70
67050;DHT22;53955;52.442;13.284;2022-09-17T00:21:15;15.00;74.20
67050;DHT22;53955;52.442;13.284;2022-09-17T00:23:42;15.00;74.30
67050;DHT22;53955;52.442;13.284;2022-09-17T00:26:10;15.00;73.60
67050;DHT22;53955;52.442;13.284;2022-09-17T00:28:37;15.00;73.90
67050;DHT22;53955;52.442;13.284;2022-09-17T00:31:06;15.00;74.00
67050;DHT22;53955;52.442;13.284;2022-09-17T00:33:33;15.10;73.90
67050;DHT22;53955;52.442;13.284;2022-09-17T00:36:01;15.10;73.60
67050;DHT22;53955;52.442;13.284;2022-09-17T00:38:28;15.10;73.80
67050;DHT22;53955;52.442;13.284;2022-09-17T00:40:55;15.10;74.00
67050;DHT22;53955;52.442;13.284;2022-09-17T00:43:39;15.10;73.50
67050;DHT22;53955;52.442;13.284;2022-09-17T00:46:11;15.20;74.10
67050;DHT22;53955;52.442;13.284;2022-09-17T00:48:40;15.20;74.20
67050;DHT22;53955;52.442;13.284;2022-09-17T00:51:08;15.20;74.10
67050;DHT22;53955;52.442;13.284;2022-09-17T00:53:36;15.10;74.40
67050;DHT22;53955;52.442;13.284;2022-09-17T00:56:08;15.20;73.70
67050;DHT22;53955;52.442;13.284;2022-09-17T00:58:38;15.20;74.50
67050;DHT22;53955;52.442;13.284;2022-09-17T01:01:05;15.20;73.90
67050;DHT22;53955;52.442;13.284;2022-09-17T01:03:32;15.20;73.50
67050;DHT22;53955;52.442;13.284;2022-09-17T01:06:07;15.20;73.90
67050;DHT22;53955;52.442;13.284;2022-09-17T01:08:45;15.30;74.30
67050;DHT22;53955;52.442;13.284;2022-09-17T01:11:31;15.20;74.70
67050;DHT22;53955;52.442;13.284;2022-09-17T01:14:10;15.30;74.50
67050;DHT22;53955;52.442;13.284;2022-09-17T01:16:47;15.30;74.30
67050;DHT22;53955;52.442;13.284;2022-09-17T01:19:37;15.30;73.80
67050;DHT22;53955;52.442;13.284;2022-09-17T01:22:10;15.30;73.80
67050;DHT22;53955;52.442;13.284;2022-09-17T01:24:48;15.30;74.20
67050;DHT22;53955;52.442;13.284;2022-09-17T01:27:34;15.30;74.30
67050;DHT22;53955;52.442;13.284;2022-09-17T01:33:18;15.30;74.00
67050;DHT22;53955;52.442;13.284;2022-09-17T01:35:50;15.50;73.30
67050;DHT22;53955;52.442;13.284;2022-09-17T01:38:25;15.50;72.20
67050;DHT22;53955;52.442;13.284;2022-09-17T01:41:03;15.40;73.60
67050;DHT22;53955;52.442;13.284;2022-09-17T01:43:34;15.40;74.00
67050;DHT22;53955;52.442;13.284;2022-09-17T01:46:06;15.50;72.90
67050;DHT22;53955;52.442;13.284;2022-09-17T01:48:40;15.50;72.50
67050;DHT22;53955;52.442;13.284;2022-09-17T01:51:10;15.60;72.90
67050;DHT22;53955;52.442;13.284;2022-09-17T01:53:43;15.50;72.90
67050;DHT22;53955;52.442;13.284;2022-09-17T01:56:14;15.50;72.70
67050;DHT22;53955;52.442;13.284;2022-09-17T01:58:47;15.50;73.10
67050;DHT22;53955;52.442;13.284;2022-09-17T02:01:18;15.50;74.00
67050;DHT22;53955;52.442;13.284;2022-09-17T02:03:51;15.60;73.30
67050;DHT22;53955;52.442;13.284;2022-09-17T02:06:23;15.60;73.30
67050;DHT22;53955;52.442;13.284;2022-09-17T02:08:54;15.60;73.30
67050;DHT22;53955;52.442;13.284;2022-09-17T02:11:22;15.70;73.70
67050;DHT22;53955;52.442;13.284;2022-09-17T02:13:52;15.60;72.70
67050;DHT22;53955;52.442;13.284;2022-09-17T02:16:23;15.70;72.90
67050;DHT22;53955;52.442;13.284;2022-09-17T02:18:55;15.70;72.70
67050;DHT22;53955;52.442;13.284;2022-09-17T02:21:30;15.70;72.70
67050;DHT22;53955;52.442;13.284;2022-09-17T02:24:05;15.70;72.80
67050;DHT22;53955;52.442;13.284;2022-09-17T02:26:34;15.70;73.20
67050;DHT22;53955;52.442;13.284;2022-09-17T02:29:07;15.60;73.30
67050;DHT22;53955;52.442;13.284;2022-09-17T02:31:35;15.80;73.00
67050;DHT22;53955;52.442;13.284;2022-09-17T02:34:03;15.80;72.90
67050;DHT22;53955;52.442;13.284;2022-09-17T02:36:31;15.70;73.20
67050;DHT22;53955;52.442;13.284;2022-09-17T02:39:01;15.70;74.10
67050;DHT22;53955;52.442;13.284;2022-09-17T02:41:35;15.70;73.00
67050;DHT22;53955;52.442;13.284;2022-09-17T02:44:11;15.70;73.10
67050;DHT22;53955;52.442;13.284;2022-09-17T02:46:55;15.70;72.80
67050;DHT22;53955;52.442;13.284;2022-09-17T02:52:21;15.70;73.60
67050;DHT22;53955;52.442;13.284;2022-09-17T02:54:54;15.70;73.40
67050;DHT22;53955;52.442;13.284;2022-09-17T02:57:32;15.70;73.10
67050;DHT22;53955;52.442;13.284;2022-09-17T03:00:06;15.70;73.50
67050;DHT22;53955;52.442;13.284;2022-09-17T03:02:38;15.90;72.90
67050;DHT22;53955;52.442;13.284;2022-09-17T03:05:10;15.70;72.60
67050;DHT22;53955;52.442;13.284;2022-09-17T03:07:37;15.70;73.00
67050;DHT22;53955;52.442;13.284;2022-09-17T03:10:05;15.70;73.60
67050;DHT22;53955;52.442;13.284;2022-09-17T03:12:32;15.80;73.40
67050;DHT22;53955;52.442;13.284;2022-09-17T03:14:59;15.70;73.50
67050;DHT22;53955;52.442;13.284;2022-09-17T03:17:25;15.70;73.30
67050;DHT22;53955;52.442;13.284;2022-09-17T03:19:52;15.70;73.20
67050;DHT22;53955;52.442;13.284;2022-09-17T03:22:20;15.70;73.30
67050;DHT22;53955;52.442;13.284;2022-09-17T03:24:46;15.70;73.10
67050;DHT22;53955;52.442;13.284;2022-09-17T03:27:13;15.70;73.10
67050;DHT22;53955;52.442;13.284;2022-09-17T03:29:40;15.70;73.30
67050;DHT22;53955;52.442;13.284;2022-09-17T03:32:07;15.70;73.40
67050;DHT22;53955;52.442;13.284;2022-09-17T03:34:33;15.70;73.10
67050;DHT22;53955;52.442;13.284;2022-09-17T03:37:00;15.60;74.10
67050;DHT22;53955;52.442;13.284;2022-09-17T03:39:28;15.70;73.90
67050;DHT22;53955;52.442;13.284;2022-09-17T03:41:55;15.70;74.60
67050;DHT22;53955;52.442;13.284;2022-09-17T03:44:22;15.70;74.50
67050;DHT22;53955;52.442;13.284;2022-09-17T03:46:48;15.60;74.40
67050;DHT22;53955;52.442;13.284;2022-09-17T03:49:15;15.60;74.90
67050;DHT22;53955;52.442;13.284;2022-09-17T03:51:42;15.70;74.80
67050;DHT22;53955;52.442;13.284;2022-09-17T03:54:08;15.60;75.20
67050;DHT22;53955;52.442;13.284;2022-09-17T03:56:36;15.60;75.30
67050;DHT22;53955;52.442;13.284;2022-09-17T03:59:03;15.60;75.20
67050;DHT22;53955;52.442;13.284;2022-09-17T04:01:29;15.60;74.90
67050;DHT22;53955;52.442;13.284;2022-09-17T04:03:56;15.60;74.30
67050;DHT22;53955;52.442;13.284;2022-09-17T04:06:22;15.60;74.20
67050;DHT22;53955;52.442;13.284;2022-09-17T04:08:49;15.60;74.90
67050;DHT22;53955;52.442;13.284;2022-09-17T04:11:15;15.60;74.20
67050;DHT22;53955;52.442;13.284;2022-09-17T04:13:44;15.60;74.20
67050;DHT22;53955;52.442;13.284;2022-09-17T04:16:10;15.60;75.00
67050;DHT22;53955;52.442;13.284;2022-09-17T04:18:37;15.70;74.50
67050;DHT22;53955;52.442;13.284;2022-09-17T04:21:04;15.60;74.70
67050;DHT22;53955;52.442;13.284;2022-09-17T04:23:31;15.70;75.00
67050;DHT22;53955;52.442;13.284;2022-09-17T04:25:57;15.70;74.70
67050;DHT22;53955;52.442;13.284;2022-09-17T04:28:24;15.70;74.60
67050;DHT22;53955;52.442;13.284;2022-09-17T04:30:52;15.70;74.00
67050;DHT22;53955;52.442;13.284;2022-09-17T04:33:18;15.60;74.00
67050;DHT22;53955;52.442;13.284;2022-09-17T04:35:45;15.60;74.60
67050;DHT22;53955;52.442;13.284;2022-09-17T04:38:12;15.70;74.40
67050;DHT22;53955;52.442;13.284;2022-09-17T04:40:43;15.50;75.00
67050;DHT22;53955;52.442;13.284;2022-09-17T04:43:10;15.60;74.10
67050;DHT22;53955;52.442;13.284;2022-09-17T04:45:37;15.60;74.80
67050;DHT22;53955;52.442;13.284;2022-09-17T04:48:05;15.60;74.80
67050;DHT22;53955;52.442;13.284;2022-09-17T04:50:31;15.70;75.00
67050;DHT22;53955;52.442;13.284;2022-09-17T04:52:58;15.60;74.70
67050;DHT22;53955;52.442;13.284;2022-09-17T04:55:24;15.60;75.20
67050;DHT22;53955;52.442;13.284;2022-09-17T04:57:52;15.60;74.00
67050;DHT22;53955;52.442;13.284;2022-09-17T05:00:20;15.70;75.10
67050;DHT22;53955;52.442;13.284;2022-09-17T05:02:48;15.60;74.90
67050;DHT22;53955;52.442;13.284;2022-09-17T05:05:17;15.70;75.00
67050;DHT22;53955;52.442;13.284;2022-09-17T05:07:44;15.70;74.50
67050;DHT22;53955;52.442;13.284;2022-09-17T05:10:12;15.70;74.50
67050;DHT22;53955;52.442;13.284;2022-09-17T05:12:39;15.70;74.70
67050;DHT22;53955;52.442;13.284;2022-09-17T05:15:06;15.70;75.30
67050;DHT22;53955;52.442;13.284;2022-09-17T05:17:33;15.70;75.30
67050;DHT22;53955;52.442;13.284;2022-09-17T05:20:00;15.70;74.90
67050;DHT22;53955;52.442;13.284;2022-09-17T05:22:27;15.70;74.90
67050;DHT22;53955;52.442;13.284;2022-09-17T05:24:54;15.70;75.40
67050;DHT22;53955;52.442;13.284;2022-09-17T05:27:20;15.70;75.50
67050;DHT22;53955;52.442;13.284;2022-09-17T05:29:47;15.80;75.10
67050;DHT22;53955;52.442;13.284;2022-09-17T05:32:14;15.90;75.20
67050;DHT22;53955;52.442;13.284;2022-09-17T05:34:41;15.80;75.60
67050;DHT22;53955;52.442;13.284;2022-09-17T05:37:08;15.90;74.90
67050;DHT22;53955;52.442;13.284;2022-09-17T05:39:37;15.90;74.80
67050;DHT22;53955;52.442;13.284;2022-09-17T05:42:03;16.00;74.20
67050;DHT22;53955;52.442;13.284;2022-09-17T05:44:30;16.00;74.80
67050;DHT22;53955;52.442;13.284;2022-09-17T05:46:57;16.00;74.80
67050;DHT22;53955;52.442;13.284;2022-09-17T05:49:23;16.00;74.50
67050;DHT22;53955;52.442;13.284;2022-09-17T05:51:50;16.10;74.80
67050;DHT22;53955;52.442;13.284;2022-09-17T05:54:16;15.90;75.10
67050;DHT22;53955;52.442;13.284;2022-09-17T05:56:44;15.90;75.30
67050;DHT22;53955;52.442;13.284;2022-09-17T05:59:11;15.80;75.30
67050;DHT22;53955;52.442;13.284;2022-09-17T06:01:39;15.80;76.10
67050;DHT22;53955;52.442;13.284;2022-09-17T06:04:05;15.90;75.30
67050;DHT22;53955;52.442;13.284;2022-09-17T06:06:32;15.80;75.40
67050;DHT22;53955;52.442;13.284;2022-09-17T06:08:58;16.00;75.20
67050;DHT22;53955;52.442;13.284;2022-09-17T06:11:25;16.00;75.10
67050;DHT22;53955;52.442;13.284;2022-09-17T06:13:54;16.00;75.20
67050;DHT22;53955;52.442;13.284;2022-09-17T06:16:21;16.00;75.00
67050;DHT22;53955;52.442;13.284;2022-09-17T06:18:48;16.10;74.90
67050;DHT22;53955;52.442;13.284;2022-09-17T06:21:17;16.00;74.70
67050;DHT22;53955;52.442;13.284;2022-09-17T06:23:46;16.00;74.40
67050;DHT22;53955;52.442;13.284;2022-09-17T06:26:12;16.00;74.50
67050;DHT22;53955;52.442;13.284;2022-09-17T06:28:39;15.90;74.30
67050;DHT22;53955;52.442;13.284;2022-09-17T06:31:08;15.90;74.20
67050;DHT22;53955;52.442;13.284;2022-09-17T06:33:35;15.90;74.50
67050;DHT22;53955;52.442;13.284;2022-09-17T06:36:03;15.90;74.20
67050;DHT22;53955;52.442;13.284;2022-09-17T06:38:32;15.80;74.50
67050;DHT22;53955;52.442;13.284;2022-09-17T06:40:59;15.80;74.70
67050;DHT22;53955;52.442;13.284;2022-09-17T06:43:26;15.80;74.10
67050;DHT22;53955;52.442;13.284;2022-09-17T06:45:53;15.80;74.50
67050;DHT22;53955;52.442;13.284;2022-09-17T06:48:21;15.80;74.10
67050;DHT22;53955;52.442;13.284;2022-09-17T06:50:48;15.80;73.70
67050;DHT22;53955;52.442;13.284;2022-09-17T06:53:15;15.80;73.60
67050;DHT22;53955;52.442;13.284;2022-09-17T06:55:42;15.80;73.50
67050;DHT22;53955;52.442;13.284;2022-09-17T06:58:08;15.90;72.70
67050;DHT22;53955;52.442;13.284;2022-09-17T07:00:35;16.00;72.60
67050;DHT22;53955;52.442;13.284;2022-09-17T07:03:02;15.90;71.80
67050;DHT22;53955;52.442;13.284;2022-09-17T07:05:30;15.90;71.70
67050;DHT22;53955;52.442;13.284;2022-09-17T07:07:59;15.80;71.60
67050;DHT22;53955;52.442;13.284;2022-09-17T07:10:27;15.90;70.90
67050;DHT22;53955;52.442;13.284;2022-09-17T07:12:54;16.00;71.20
67050;DHT22;53955;52.442;13.284;2022-09-17T07:15:20;16.10;70.30
67050;DHT22;53955;52.442;13.284;2022-09-17T07:17:47;16.20;70.50
67050;DHT22;53955;52.442;13.284;2022-09-17T07:20:14;16.30;70.20
67050;DHT22;53955;52.442;13.284;2022-09-17T07:22:42;16.30;70.20
67050;DHT22;53955;52.442;13.284;2022-09-17T07:25:09;16.30;69.80
67050;DHT22;53955;52.442;13.284;2022-09-17T07:27:35;16.20;69.70
67050;DHT22;53955;52.442;13.284;2022-09-17T07:30:02;16.20;69.40
67050;DHT22;53955;52.442;13.284;2022-09-17T07:32:29;16.20;69.10
67050;DHT22;53955;52.442;13.284;2022-09-17T07:34:56;16.20;69.80
67050;DHT22;53955;52.442;13.284;2022-09-17T07:37:23;16.20;69.90
67050;DHT22;53955;52.442;13.284;2022-09-17T07:39:51;16.20;69.80
67050;DHT22;53955;52.442;13.284;2022-09-17T07:42:17;16.30;69.30
67050;DHT22;53955;52.442;13.284;2022-09-17T07:44:44;16.10;69.00
67050;DHT22;53955;52.442;13.284;2022-09-17T07:47:11;16.20;69.40
67050;DHT22;53955;52.442;13.284;2022-09-17T07:49:37;16.30;68.80
67050;DHT22;53955;52.442;13.284;2022-09-17T07:52:04;16.40;69.40
67050;DHT22;53955;52.442;13.284;2022-09-17T07:54:30;16.40;68.10
67050;DHT22;53955;52.442;13.284;2022-09-17T07:56:59;16.70;68.10
67050;DHT22;53955;52.442;13.284;2022-09-17T07:59:25;16.90;67.50
67050;DHT22;53955;52.442;13.284;2022-09-17T08:01:52;17.00;66.80
67050;DHT22;53955;52.442;13.284;2022-09-17T08:04:18;16.90;66.30
67050;DHT22;53955;52.442;13.284;2022-09-17T08:06:45;16.90;65.40
67050;DHT22;53955;52.442;13.284;2022-09-17T08:09:13;17.00;64.90
67050;DHT22;53955;52.442;13.284;2022-09-17T08:11:41;17.00;66.10
67050;DHT22;53955;52.442;13.284;2022-09-17T08:14:12;17.00;66.20
67050;DHT22;53955;52.442;13.284;2022-09-17T08:16:39;17.10;64.70
67050;DHT22;53955;52.442;13.284;2022-09-17T08:19:05;17.10;63.70
67050;DHT22;53955;52.442;13.284;2022-09-17T08:21:33;17.10;63.30
67050;DHT22;53955;52.442;13.284;2022-09-17T08:24:00;17.10;63.80
67050;DHT22;53955;52.442;13.284;2022-09-17T08:26:27;17.20;64.00
67050;DHT22;53955;52.442;13.284;2022-09-17T08:28:54;17.40;63.20
67050;DHT22;53955;52.442;13.284;2022-09-17T08:31:23;17.40;63.00
67050;DHT22;53955;52.442;13.284;2022-09-17T08:33:50;17.60;61.40
67050;DHT22;53955;52.442;13.284;2022-09-17T08:36:19;17.70;60.00
67050;DHT22;53955;52.442;13.284;2022-09-17T08:38:50;17.60;61.20
67050;DHT22;53955;52.442;13.284;2022-09-17T08:41:22;17.70;61.70
67050;DHT22;53955;52.442;13.284;2022-09-17T08:43:57;17.90;60.00
67050;DHT22;53955;52.442;13.284;2022-09-17T08:46:30;18.50;57.40
67050;DHT22;53955;52.442;13.284;2022-09-17T08:49:06;18.50;56.00
67050;DHT22;53955;52.442;13.284;2022-09-17T08:51:41;18.60;55.70
67050;DHT22;53955;52.442;13.284;2022-09-17T08:54:17;18.60;55.50
67050;DHT22;53955;52.442;13.284;2022-09-17T08:56:58;18.70;55.80
67050;DHT22;53955;52.442;13.284;2022-09-17T08:59:35;18.70;53.20
67050;DHT22;53955;52.442;13.284;2022-09-17T09:02:16;18.60;53.10
67050;DHT22;53955;52.442;13.284;2022-09-17T09:05:00;18.60;53.30
67050;DHT22;53955;52.442;13.284;2022-09-17T09:07:30;18.40;52.80
67050;DHT22;53955;52.442;13.284;2022-09-17T09:10:07;18.50;52.20
67050;DHT22;53955;52.442;13.284;2022-09-17T09:12:38;18.30;52.40
67050;DHT22;53955;52.442;13.284;2022-09-17T09:15:14;18.40;52.00
67050;DHT22;53955;52.442;13.284;2022-09-17T09:17:48;18.70;53.50
67050;DHT22;53955;52.442;13.284;2022-09-17T09:20:17;19.20;51.20
67050;DHT22;53955;52.442;13.284;2022-09-17T09:22:46;19.40;49.40
67050;DHT22;53955;52.442;13.284;2022-09-17T09:25:23;19.50;49.00
67050;DHT22;53955;52.442;13.284;2022-09-17T09:28:01;19.40;49.40
67050;DHT22;53955;52.442;13.284;2022-09-17T09:30:36;19.10;50.60
67050;DHT22;53955;52.442;13.284;2022-09-17T09:33:12;18.70;51.40
67050;DHT22;53955;52.442;13.284;2022-09-17T09:35:41;18.50;51.40
67050;DHT22;53955;52.442;13.284;2022-09-17T09:38:17;18.30;52.30
67050;DHT22;53955;52.442;13.284;2022-09-17T09:40:52;18.40;52.40
67050;DHT22;53955;52.442;13.284;2022-09-17T09:43:21;18.50;52.30
67050;DHT22;53955;52.442;13.284;2022-09-17T09:46:03;18.30;52.40
67050;DHT22;53955;52.442;13.284;2022-09-17T09:48:40;18.20;52.10
67050;DHT22;53955;52.442;13.284;2022-09-17T09:51:19;18.20;53.70
67050;DHT22;53955;52.442;13.284;2022-09-17T09:54:04;18.10;55.30
67050;DHT22;53955;52.442;13.284;2022-09-17T09:56:46;18.00;56.60
67050;DHT22;53955;52.442;13.284;2022-09-17T09:59:14;17.60;59.40
67050;DHT22;53955;52.442;13.284;2022-09-17T10:01:42;17.30;60.30
67050;DHT22;53955;52.442;13.284;2022-09-17T10:04:17;17.10;61.00
67050;DHT22;53955;52.442;13.284;2022-09-17T10:06:45;17.00;61.90
67050;DHT22;53955;52.442;13.284;2022-09-17T10:09:13;17.30;62.50
67050;DHT22;53955;52.442;13.284;2022-09-17T10:11:41;17.90;60.70
67050;DHT22;53955;52.442;13.284;2022-09-17T10:14:21;18.10;58.70
67050;DHT22;53955;52.442;13.284;2022-09-17T10:16:52;18.40;56.50
67050;DHT22;53955;52.442;13.284;2022-09-17T10:19:37;18.30;54.80
67050;DHT22;53955;52.442;13.284;2022-09-17T10:22:18;18.50;54.20
67050;DHT22;53955;52.442;13.284;2022-09-17T10:24:46;18.70;53.80
67050;DHT22;53955;52.442;13.284;2022-09-17T10:27:16;18.90;51.70
67050;DHT22;53955;52.442;13.284;2022-09-17T10:29:45;18.90;51.30
67050;DHT22;53955;52.442;13.284;2022-09-17T10:32:15;18.80;50.70
67050;DHT22;53955;52.442;13.284;2022-09-17T10:34:59;18.60;51.70
67050;DHT22;53955;52.442;13.284;2022-09-17T10:37:34;18.50;52.10
67050;DHT22;53955;52.442;13.284;2022-09-17T10:40:29;18.60;52.20
67050;DHT22;53955;52.442;13.284;2022-09-17T10:43:16;18.70;52.30
67050;DHT22;53955;52.442;13.284;2022-09-17T10:45:44;18.70;50.90
67050;DHT22;53955;52.442;13.284;2022-09-17T10:48:19;18.60;51.20
67050;DHT22;53955;52.442;13.284;2022-09-17T10:50:47;18.40;50.60
67050;DHT22;53955;52.442;13.284;2022-09-17T10:53:16;18.30;51.00
67050;DHT22;53955;52.442;13.284;2022-09-17T10:55:46;18.20;51.20
67050;DHT22;53955;52.442;13.284;2022-09-17T10:58:29;18.20;52.20
67050;DHT22;53955;52.442;13.284;2022-09-17T11:01:05;18.30;50.60
67050;DHT22;53955;52.442;13.284;2022-09-17T11:03:59;18.30;49.20
67050;DHT22;53955;52.442;13.284;2022-09-17T11:06:43;18.20;49.40
67050;DHT22;53955;52.442;13.284;2022-09-17T11:09:22;18.30;49.50
67050;DHT22;53955;52.442;13.284;2022-09-17T11:12:08;18.10;49.30
67050;DHT22;53955;52.442;13.284;2022-09-17T11:14:49;18.00;50.30
67050;DHT22;53955;52.442;13.284;2022-09-17T11:17:30;17.90;51.10
67050;DHT22;53955;52.442;13.284;2022-09-17T11:20:03;17.90;50.70
67050;DHT22;53955;52.442;13.284;2022-09-17T11:22:40;18.10;51.10
67050;DHT22;53955;52.442;13.284;2022-09-17T11:25:39;18.30;47.50
67050;DHT22;53955;52.442;13.284;2022-09-17T11:28:20;18.30;47.70
67050;DHT22;53955;52.442;13.284;2022-09-17T11:30:55;18.20;48.10
67050;DHT22;53955;52.442;13.284;2022-09-17T11:33:37;18.10;51.00
67050;DHT22;53955;52.442;13.284;2022-09-17T11:36:11;18.00;51.20
67050;DHT22;53955;52.442;13.284;2022-09-17T11:38:40;18.10;50.90
67050;DHT22;53955;52.442;13.284;2022-09-17T11:41:11;17.90;50.60
67050;DHT22;53955;52.442;13.284;2022-09-17T11:43:43;18.10;49.80
67050;DHT22;53955;52.442;13.284;2022-09-17T11:46:16;18.30;47.80
67050;DHT22;53955;52.442;13.284;2022-09-17T11:48:46;18.40;48.40
67050;DHT22;53955;52.442;13.284;2022-09-17T11:51:22;18.40;47.20
67050;DHT22;53955;52.442;13.284;2022-09-17T11:53:53;18.50;46.10
67050;DHT22;53955;52.442;13.284;2022-09-17T11:56:24;18.70;45.40
67050;DHT22;53955;52.442;13.284;2022-09-17T11:58:57;18.70;44.70
67050;DHT22;53955;52.442;13.284;2022-09-17T12:01:31;18.80;44.60
67050;DHT22;53955;52.442;13.284;2022-09-17T12:04:15;18.90;44.30
67050;DHT22;53955;52.442;13.284;2022-09-17T12:06:56;19.00;44.90
67050;DHT22;53955;52.442;13.284;2022-09-17T12:09:28;19.00;45.00
67050;DHT22;53955;52.442;13.284;2022-09-17T12:11:59;19.10;43.70
67050;DHT22;53955;52.442;13.284;2022-09-17T12:14:30;19.10;44.10
67050;DHT22;53955;52.442;13.284;2022-09-17T12:17:02;19.10;44.00
67050;DHT22;53955;52.442;13.284;2022-09-17T12:19:30;19.00;44.10
67050;DHT22;53955;52.442;13.284;2022-09-17T12:21:58;19.00;46.40
67050;DHT22;53955;52.442;13.284;2022-09-17T12:24:26;18.80;48.00
67050;DHT22;53955;52.442;13.284;2022-09-17T12:26:56;18.70;50.40
67050;DHT22;53955;52.442;13.284;2022-09-17T12:29:40;18.80;51.30
67050;DHT22;53955;52.442;13.284;2022-09-17T12:32:13;18.80;50.10
67050;DHT22;53955;52.442;13.284;2022-09-17T12:34:47;18.90;50.70
67050;DHT22;53955;52.442;13.284;2022-09-17T12:37:22;19.10;49.50
67050;DHT22;53955;52.442;13.284;2022-09-17T12:40:07;19.30;48.20
67050;DHT22;53955;52.442;13.284;2022-09-17T12:43:02;19.40;47.30
67050;DHT22;53955;52.442;13.284;2022-09-17T12:45:42;19.50;47.10
67050;DHT22;53955;52.442;13.284;2022-09-17T12:48:30;19.60;44.30
67050;DHT22;53955;52.442;13.284;2022-09-17T12:51:09;19.50;44.10
67050;DHT22;53955;52.442;13.284;2022-09-17T12:53:42;19.30;43.80
67050;DHT22;53955;52.442;13.284;2022-09-17T12:56:22;19.30;43.40
67050;DHT22;53955;52.442;13.284;2022-09-17T12:59:08;19.10;43.80
67050;DHT22;53955;52.442;13.284;2022-09-17T13:01:42;18.90;44.30
67050;DHT22;53955;52.442;13.284;2022-09-17T13:04:30;18.80;39.30
67050;DHT22;53955;52.442;13.284;2022-09-17T13:07:16;18.80;42.00
67050;DHT22;53955;52.442;13.284;2022-09-17T13:10:28;18.90;38.60
67050;DHT22;53955;52.442;13.284;2022-09-17T13:13:06;18.90;37.40
67050;DHT22;53955;52.442;13.284;2022-09-17T13:15:44;18.80;35.50
67050;DHT22;53955;52.442;13.284;2022-09-17T13:18:18;18.90;37.10
67050;DHT22;53955;52.442;13.284;2022-09-17T13:20:59;19.00;36.40
67050;DHT22;53955;52.442;13.284;2022-09-17T13:23:31;19.00;35.70
67050;DHT22;53955;52.442;13.284;2022-09-17T13:25:58;18.90;36.40
67050;DHT22;53955;52.442;13.284;2022-09-17T13:28:39;19.00;36.60
67050;DHT22;53955;52.442;13.284;2022-09-17T13:31:06;19.00;36.70
67050;DHT22;53955;52.442;13.284;2022-09-17T13:33:52;19.10;36.40
67050;DHT22;53955;52.442;13.284;2022-09-17T13:36:40;19.20;35.80
67050;DHT22;53955;52.442;13.284;2022-09-17T13:39:10;19.20;35.90
67050;DHT22;53955;52.442;13.284;2022-09-17T13:41:38;19.30;35.80
67050;DHT22;53955;52.442;13.284;2022-09-17T13:44:06;19.40;36.50
67050;DHT22;53955;52.442;13.284;2022-09-17T13:46:34;19.10;36.90
67050;DHT22;53955;52.442;13.284;2022-09-17T13:49:05;19.10;38.00
67050;DHT22;53955;52.442;13.284;2022-09-17T13:51:50;19.10;38.80
67050;DHT22;53955;52.442;13.284;2022-09-17T13:54:20;19.20;38.20
67050;DHT22;53955;52.442;13.284;2022-09-17T13:56:51;19.30;38.70
67050;DHT22;53955;52.442;13.284;2022-09-17T13:59:31;19.40;38.00
67050;DHT22;53955;52.442;13.284;2022-09-17T14:04:50;19.50;37.00
67050;DHT22;53955;52.442;13.284;2022-09-17T14:07:31;19.60;34.20
67050;DHT22;53955;52.442;13.284;2022-09-17T14:09:59;19.30;33.60
67050;DHT22;53955;52.442;13.284;2022-09-17T14:12:54;19.30;34.10
67050;DHT22;53955;52.442;13.284;2022-09-17T14:18:54;19.20;33.00
67050;DHT22;53955;52.442;13.284;2022-09-17T14:21:26;19.30;33.80
67050;DHT22;53955;52.442;13.284;2022-09-17T14:23:56;19.30;34.50
67050;DHT22;53955;52.442;13.284;2022-09-17T14:26:43;19.30;35.70
67050;DHT22;53955;52.442;13.284;2022-09-17T14:29:23;19.20;36.50
67050;DHT22;53955;52.442;13.284;2022-09-17T14:31:52;19.20;38.30
67050;DHT22;53955;52.442;13.284;2022-09-17T14:34:20;19.10;38.60
67050;DHT22;53955;52.442;13.284;2022-09-17T14:36:50;19.00;40.30
67050;DHT22;53955;52.442;13.284;2022-09-17T14:39:21;18.90;40.30
67050;DHT22;53955;52.442;13.284;2022-09-17T14:41:48;18.80;40.90
67050;DHT22;53955;52.442;13.284;2022-09-17T14:44:18;18.80;40.80
67050;DHT22;53955;52.442;13.284;2022-09-17T14:46:50;18.80;39.40
67050;DHT22;53955;52.442;13.284;2022-09-17T14:49:20;18.80;40.20
67050;DHT22;53955;52.442;13.284;2022-09-17T14:51:49;18.80;39.50
67050;DHT22;53955;52.442;13.284;2022-09-17T14:54:18;18.60;36.80
67050;DHT22;53955;52.442;13.284;2022-09-17T14:56:49;18.40;36.50
67050;DHT22;53955;52.442;13.284;2022-09-17T14:59:21;18.40;37.60
67050;DHT22;53955;52.442;13.284;2022-09-17T15:01:48;18.30;38.20
67050;DHT22;53955;52.442;13.284;2022-09-17T15:04:23;18.40;39.10
67050;DHT22;53955;52.442;13.284;2022-09-17T15:06:51;18.40;40.10
67050;DHT22;53955;52.442;13.284;2022-09-17T15:09:22;18.50;40.50
67050;DHT22;53955;52.442;13.284;2022-09-17T15:11:52;18.40;40.60
67050;DHT22;53955;52.442;13.284;2022-09-17T15:14:21;18.30;41.40
67050;DHT22;53955;52.442;13.284;2022-09-17T15:16:50;18.30;41.00
67050;DHT22;53955;52.442;13.284;2022-09-17T15:19:22;18.30;39.50
67050;DHT22;53955;52.442;13.284;2022-09-17T15:21:52;18.30;37.50
67050;DHT22;53955;52.442;13.284;2022-09-17T15:24:29;18.10;39.60
67050;DHT22;53955;52.442;13.284;2022-09-17T15:27:04;18.10;40.00
67050;DHT22;53955;52.442;13.284;2022-09-17T15:29:33;18.00;38.80
67050;DHT22;53955;52.442;13.284;2022-09-17T15:32:02;17.80;39.60
67050;DHT22;53955;52.442;13.284;2022-09-17T15:34:29;17.80;40.30
67050;DHT22;53955;52.442;13.284;2022-09-17T15:37:04;17.80;39.70
67050;DHT22;53955;52.442;13.284;2022-09-17T15:39:37;17.80;40.60
67050;DHT22;53955;52.442;13.284;2022-09-17T15:42:04;17.90;39.60
67050;DHT22;53955;52.442;13.284;2022-09-17T15:44:31;17.70;41.10
67050;DHT22;53955;52.442;13.284;2022-09-17T15:47:42;17.80;40.50
67050;DHT22;53955;52.442;13.284;2022-09-17T15:50:16;17.60;39.80
67050;DHT22;53955;52.442;13.284;2022-09-17T15:52:45;17.50;39.30
67050;DHT22;53955;52.442;13.284;2022-09-17T15:55:28;17.30;39.70